sensor_id;sensor_type;location;lat;lon;timestamp;P1;durP1;ratioP1;P2;durP2;ratioP2
21206;SDS011;10761;48.532;8.026;2023-06-24T00:00:29;3.40;;;3.10;;
21206;SDS011;10761;48.532;8.026;2023-06-24T00:02:55;3.67;;;3.15;;
21206;SDS011;10761;48.532;8.026;2023-06-24T00:05:23;4.43;;;3.22;;
21206;SDS011;10761;48.532;8.026;2023-06-24T00:07:48;4.68;;;3.20;;
21206;SDS011;10761;48.532;8.026;2023-06-24T00:10:14;3.70;;;3.35;;
21206;SDS011;10761;48.532;8.026;2023-06-24T00:12:40;5.63;;;3.63;;
21206;SDS011;10761;48.532;8.026;2023-06-24T00:15:06;4.35;;;3.20;;
21206;SDS011;10761;48.532;8.026;2023-06-24T00:17:34;3.50;;;3.20;;
21206;SDS011;10761;48.532;8.026;2023-06-24T00:20:00;5.57;;;3.38;;
21206;SDS011;10761;48.532;8.026;2023-06-24T00:22:26;4.85;;;3.05;;
21206;SDS011;10761;48.532;8.026;2023-06-24T00:24:51;3.45;;;3.10;;
21206;SDS011;10761;48.532;8.026;2023-06-24T00:27:17;4.90;;;3.30;;
21206;SDS011;10761;48.532;8.026;2023-06-24T00:29:42;4.13;;;3.03;;
21206;SDS011;10761;48.532;8.026;2023-06-24T00:32:08;5.75;;;3.28;;
21206;SDS011;10761;48.532;8.026;2023-06-24T00:34:34;4.20;;;3.30;;
21206;SDS011;10761;48.532;8.026;2023-06-24T00:36:59;4.47;;;3.35;;
21206;SDS011;10761;48.532;8.026;2023-06-24T00:39:27;5.47;;;3.20;;
21206;SDS011;10761;48.532;8.026;2023-06-24T00:41:52;3.30;;;3.00;;
21206;SDS011;10761;48.532;8.026;2023-06-24T00:44:18;3.92;;;3.50;;
21206;SDS011;10761;48.532;8.026;2023-06-24T00:46:44;4.20;;;3.53;;
21206;SDS011;10761;48.532;8.026;2023-06-24T00:49:10;7.47;;;3.47;;
21206;SDS011;10761;48.532;8.026;2023-06-24T00:51:40;4.40;;;3.33;;
21206;SDS011;10761;48.532;8.026;2023-06-24T00:54:12;5.13;;;3.95;;
21206;SDS011;10761;48.532;8.026;2023-06-24T00:56:38;3.90;;;3.60;;
21206;SDS011;10761;48.532;8.026;2023-06-24T00:59:03;5.07;;;3.53;;
21206;SDS011;10761;48.532;8.026;2023-06-24T01:01:32;4.00;;;3.30;;
21206;SDS011;10761;48.532;8.026;2023-06-24T01:04:00;6.72;;;3.55;;
21206;SDS011;10761;48.532;8.026;2023-06-24T01:06:27;4.45;;;3.22;;
21206;SDS011;10761;48.532;8.026;2023-06-24T01:08:53;4.80;;;3.55;;
21206;SDS011;10761;48.532;8.026;2023-06-24T01:11:23;3.60;;;3.30;;
21206;SDS011;10761;48.532;8.026;2023-06-24T01:13:49;4.00;;;3.35;;
21206;SDS011;10761;48.532;8.026;2023-06-24T01:16:18;3.50;;;3.20;;
21206;SDS011;10761;48.532;8.026;2023-06-24T01:18:57;4.78;;;3.13;;
21206;SDS011;10761;48.532;8.026;2023-06-24T01:21:42;3.50;;;3.20;;
21206;SDS011;10761;48.532;8.026;2023-06-24T01:30:26;8.50;;;3.97;;
21206;SDS011;10761;48.532;8.026;2023-06-24T01:33:09;3.83;;;3.22;;
21206;SDS011;10761;48.532;8.026;2023-06-24T01:35:37;4.50;;;3.55;;
21206;SDS011;10761;48.532;8.026;2023-06-24T01:38:08;6.10;;;3.20;;
21206;SDS011;10761;48.532;8.026;2023-06-24T01:40:45;4.05;;;3.65;;
21206;SDS011;10761;48.532;8.026;2023-06-24T01:43:13;3.78;;;3.47;;
21206;SDS011;10761;48.532;8.026;2023-06-24T01:45:41;4.07;;;3.50;;
21206;SDS011;10761;48.532;8.026;2023-06-24T01:48:16;5.82;;;3.70;;
21206;SDS011;10761;48.532;8.026;2023-06-24T01:50:55;3.60;;;3.30;;
21206;SDS011;10761;48.532;8.026;2023-06-24T01:53:29;4.10;;;3.70;;
21206;SDS011;10761;48.532;8.026;2023-06-24T01:56:00;4.47;;;3.55;;
21206;SDS011;10761;48.532;8.026;2023-06-24T01:58:26;4.45;;;3.33;;
21206;SDS011;10761;48.532;8.026;2023-06-24T02:00:53;4.30;;;3.90;;
21206;SDS011;10761;48.532;8.026;2023-06-24T02:03:21;4.78;;;3.60;;
21206;SDS011;10761;48.532;8.026;2023-06-24T02:05:47;4.25;;;3.78;;
21206;SDS011;10761;48.532;8.026;2023-06-24T02:08:14;4.28;;;3.60;;
21206;SDS011;10761;48.532;8.026;2023-06-24T02:10:41;4.97;;;3.40;;
21206;SDS011;10761;48.532;8.026;2023-06-24T02:13:09;5.07;;;3.83;;
21206;SDS011;10761;48.532;8.026;2023-06-24T02:15:36;5.30;;;3.90;;
21206;SDS011;10761;48.532;8.026;2023-06-24T02:18:04;4.30;;;3.90;;
21206;SDS011;10761;48.532;8.026;2023-06-24T02:20:30;6.38;;;3.70;;
21206;SDS011;10761;48.532;8.026;2023-06-24T02:22:57;4.75;;;3.92;;
21206;SDS011;10761;48.532;8.026;2023-06-24T02:25:24;5.13;;;4.22;;
21206;SDS011;10761;48.532;8.026;2023-06-24T02:27:52;6.63;;;3.75;;
21206;SDS011;10761;48.532;8.026;2023-06-24T02:30:20;6.20;;;4.15;;
21206;SDS011;10761;48.532;8.026;2023-06-24T02:32:46;4.78;;;4.32;;
21206;SDS011;10761;48.532;8.026;2023-06-24T02:35:12;5.22;;;4.35;;
21206;SDS011;10761;48.532;8.026;2023-06-24T02:37:38;5.65;;;4.72;;
21206;SDS011;10761;48.532;8.026;2023-06-24T02:40:04;4.90;;;4.50;;
21206;SDS011;10761;48.532;8.026;2023-06-24T02:42:32;5.72;;;4.38;;
21206;SDS011;10761;48.532;8.026;2023-06-24T02:44:58;6.22;;;4.80;;
21206;SDS011;10761;48.532;8.026;2023-06-24T02:47:24;5.55;;;4.60;;
21206;SDS011;10761;48.532;8.026;2023-06-24T02:49:50;5.88;;;4.15;;
21206;SDS011;10761;48.532;8.026;2023-06-24T02:52:16;5.18;;;4.68;;
21206;SDS011;10761;48.532;8.026;2023-06-24T02:54:43;4.85;;;4.35;;
21206;SDS011;10761;48.532;8.026;2023-06-24T02:57:09;6.35;;;4.70;;
21206;SDS011;10761;48.532;8.026;2023-06-24T02:59:36;8.27;;;4.68;;
21206;SDS011;10761;48.532;8.026;2023-06-24T03:02:02;6.55;;;5.10;;
21206;SDS011;10761;48.532;8.026;2023-06-24T03:04:29;6.55;;;4.68;;
21206;SDS011;10761;48.532;8.026;2023-06-24T03:06:55;5.50;;;4.70;;
21206;SDS011;10761;48.532;8.026;2023-06-24T03:09:21;6.40;;;5.05;;
21206;SDS011;10761;48.532;8.026;2023-06-24T03:11:48;5.20;;;4.65;;
21206;SDS011;10761;48.532;8.026;2023-06-24T03:14:13;4.95;;;4.55;;
21206;SDS011;10761;48.532;8.026;2023-06-24T03:16:39;6.45;;;4.57;;
21206;SDS011;10761;48.532;8.026;2023-06-24T03:19:05;4.82;;;4.30;;
21206;SDS011;10761;48.532;8.026;2023-06-24T03:21:31;7.18;;;5.10;;
21206;SDS011;10761;48.532;8.026;2023-06-24T03:23:57;7.95;;;4.80;;
21206;SDS011;10761;48.532;8.026;2023-06-24T03:26:24;5.85;;;4.70;;
21206;SDS011;10761;48.532;8.026;2023-06-24T03:28:56;5.70;;;4.60;;
21206;SDS011;10761;48.532;8.026;2023-06-24T03:31:21;5.40;;;4.90;;
21206;SDS011;10761;48.532;8.026;2023-06-24T03:33:48;5.22;;;4.72;;
21206;SDS011;10761;48.532;8.026;2023-06-24T03:36:13;5.22;;;4.72;;
21206;SDS011;10761;48.532;8.026;2023-06-24T03:38:39;6.57;;;4.68;;
21206;SDS011;10761;48.532;8.026;2023-06-24T03:41:05;5.88;;;4.78;;
21206;SDS011;10761;48.532;8.026;2023-06-24T03:43:31;5.57;;;4.80;;
21206;SDS011;10761;48.532;8.026;2023-06-24T03:45:56;6.30;;;5.03;;
21206;SDS011;10761;48.532;8.026;2023-06-24T03:48:22;5.10;;;4.57;;
21206;SDS011;10761;48.532;8.026;2023-06-24T03:50:48;7.60;;;5.30;;
21206;SDS011;10761;48.532;8.026;2023-06-24T03:53:13;5.45;;;4.57;;
21206;SDS011;10761;48.532;8.026;2023-06-24T03:55:39;7.78;;;4.90;;
21206;SDS011;10761;48.532;8.026;2023-06-24T03:58:04;5.57;;;4.97;;
21206;SDS011;10761;48.532;8.026;2023-06-24T04:00:30;5.32;;;4.82;;
21206;SDS011;10761;48.532;8.026;2023-06-24T04:02:55;7.07;;;4.97;;
21206;SDS011;10761;48.532;8.026;2023-06-24T04:05:21;9.15;;;5.88;;
21206;SDS011;10761;48.532;8.026;2023-06-24T04:07:49;5.60;;;5.10;;
21206;SDS011;10761;48.532;8.026;2023-06-24T04:10:15;7.57;;;5.38;;
21206;SDS011;10761;48.532;8.026;2023-06-24T04:12:42;5.63;;;5.07;;
21206;SDS011;10761;48.532;8.026;2023-06-24T04:15:07;6.22;;;5.63;;
21206;SDS011;10761;48.532;8.026;2023-06-24T04:17:33;9.75;;;6.28;;
21206;SDS011;10761;48.532;8.026;2023-06-24T04:19:59;6.32;;;5.10;;
21206;SDS011;10761;48.532;8.026;2023-06-24T04:22:25;6.00;;;5.40;;
21206;SDS011;10761;48.532;8.026;2023-06-24T04:24:50;7.63;;;5.25;;
21206;SDS011;10761;48.532;8.026;2023-06-24T04:27:16;6.30;;;5.38;;
21206;SDS011;10761;48.532;8.026;2023-06-24T04:29:42;7.32;;;5.95;;
21206;SDS011;10761;48.532;8.026;2023-06-24T04:32:07;8.50;;;6.32;;
21206;SDS011;10761;48.532;8.026;2023-06-24T04:34:33;6.03;;;5.43;;
21206;SDS011;10761;48.532;8.026;2023-06-24T04:36:58;7.80;;;7.10;;
21206;SDS011;10761;48.532;8.026;2023-06-24T04:39:24;7.20;;;6.13;;
21206;SDS011;10761;48.532;8.026;2023-06-24T04:41:50;6.60;;;5.65;;
21206;SDS011;10761;48.532;8.026;2023-06-24T04:44:15;11.10;;;5.72;;
21206;SDS011;10761;48.532;8.026;2023-06-24T04:46:41;5.95;;;5.35;;
21206;SDS011;10761;48.532;8.026;2023-06-24T04:49:07;6.40;;;5.80;;
21206;SDS011;10761;48.532;8.026;2023-06-24T04:51:32;6.13;;;5.07;;
21206;SDS011;10761;48.532;8.026;2023-06-24T04:53:58;5.82;;;5.32;;
21206;SDS011;10761;48.532;8.026;2023-06-24T04:56:24;5.72;;;5.00;;
21206;SDS011;10761;48.532;8.026;2023-06-24T04:58:49;6.85;;;5.53;;
21206;SDS011;10761;48.532;8.026;2023-06-24T05:01:15;6.32;;;5.72;;
21206;SDS011;10761;48.532;8.026;2023-06-24T05:03:41;6.65;;;5.32;;
21206;SDS011;10761;48.532;8.026;2023-06-24T05:06:07;8.65;;;5.78;;
21206;SDS011;10761;48.532;8.026;2023-06-24T05:08:33;6.53;;;5.78;;
21206;SDS011;10761;48.532;8.026;2023-06-24T05:10:58;6.38;;;5.32;;
21206;SDS011;10761;48.532;8.026;2023-06-24T05:13:24;7.28;;;5.43;;
21206;SDS011;10761;48.532;8.026;2023-06-24T05:15:50;8.25;;;5.90;;
21206;SDS011;10761;48.532;8.026;2023-06-24T05:18:16;6.13;;;5.53;;
21206;SDS011;10761;48.532;8.026;2023-06-24T05:20:41;5.90;;;5.40;;
21206;SDS011;10761;48.532;8.026;2023-06-24T05:23:07;6.15;;;5.55;;
21206;SDS011;10761;48.532;8.026;2023-06-24T05:25:33;6.75;;;5.72;;
21206;SDS011;10761;48.532;8.026;2023-06-24T05:27:58;6.57;;;5.22;;
21206;SDS011;10761;48.532;8.026;2023-06-24T05:30:24;7.00;;;5.53;;
21206;SDS011;10761;48.532;8.026;2023-06-24T05:32:49;8.98;;;5.38;;
21206;SDS011;10761;48.532;8.026;2023-06-24T05:35:15;8.30;;;5.82;;
21206;SDS011;10761;48.532;8.026;2023-06-24T05:37:41;5.80;;;5.28;;
21206;SDS011;10761;48.532;8.026;2023-06-24T05:40:06;8.25;;;6.07;;
21206;SDS011;10761;48.532;8.026;2023-06-24T05:42:33;6.78;;;6.00;;
21206;SDS011;10761;48.532;8.026;2023-06-24T05:44:58;8.38;;;5.25;;
21206;SDS011;10761;48.532;8.026;2023-06-24T05:47:24;7.28;;;5.55;;
21206;SDS011;10761;48.532;8.026;2023-06-24T05:49:49;7.97;;;5.43;;
21206;SDS011;10761;48.532;8.026;2023-06-24T05:52:15;10.55;;;5.53;;
21206;SDS011;10761;48.532;8.026;2023-06-24T05:54:41;7.97;;;5.40;;
21206;SDS011;10761;48.532;8.026;2023-06-24T05:57:06;7.68;;;5.18;;
21206;SDS011;10761;48.532;8.026;2023-06-24T05:59:32;14.55;;;5.80;;
21206;SDS011;10761;48.532;8.026;2023-06-24T06:01:58;8.43;;;5.38;;
21206;SDS011;10761;48.532;8.026;2023-06-24T06:04:26;5.90;;;5.30;;
21206;SDS011;10761;48.532;8.026;2023-06-24T06:06:52;10.60;;;4.90;;
21206;SDS011;10761;48.532;8.026;2023-06-24T06:09:17;8.45;;;4.95;;
21206;SDS011;10761;48.532;8.026;2023-06-24T06:11:43;6.80;;;4.68;;
21206;SDS011;10761;48.532;8.026;2023-06-24T06:14:09;7.00;;;4.97;;
21206;SDS011;10761;48.532;8.026;2023-06-24T06:16:34;5.75;;;4.50;;
21206;SDS011;10761;48.532;8.026;2023-06-24T06:19:00;10.30;;;5.05;;
21206;SDS011;10761;48.532;8.026;2023-06-24T06:21:25;6.43;;;4.70;;
21206;SDS011;10761;48.532;8.026;2023-06-24T06:23:51;6.60;;;5.35;;
21206;SDS011;10761;48.532;8.026;2023-06-24T06:26:16;7.40;;;4.97;;
21206;SDS011;10761;48.532;8.026;2023-06-24T06:28:42;5.18;;;4.70;;
21206;SDS011;10761;48.532;8.026;2023-06-24T06:31:08;5.68;;;5.07;;
21206;SDS011;10761;48.532;8.026;2023-06-24T06:33:33;6.60;;;5.30;;
21206;SDS011;10761;48.532;8.026;2023-06-24T06:35:59;6.32;;;5.25;;
21206;SDS011;10761;48.532;8.026;2023-06-24T06:38:24;5.28;;;4.65;;
21206;SDS011;10761;48.532;8.026;2023-06-24T06:40:50;6.43;;;5.00;;
21206;SDS011;10761;48.532;8.026;2023-06-24T06:43:15;9.27;;;5.25;;
21206;SDS011;10761;48.532;8.026;2023-06-24T06:45:41;8.45;;;4.45;;
21206;SDS011;10761;48.532;8.026;2023-06-24T06:48:07;4.78;;;4.22;;
21206;SDS011;10761;48.532;8.026;2023-06-24T06:50:33;6.63;;;4.72;;
21206;SDS011;10761;48.532;8.026;2023-06-24T06:52:59;7.22;;;4.68;;
21206;SDS011;10761;48.532;8.026;2023-06-24T06:55:26;5.47;;;4.90;;
21206;SDS011;10761;48.532;8.026;2023-06-24T06:57:52;8.32;;;5.43;;
21206;SDS011;10761;48.532;8.026;2023-06-24T07:00:18;6.57;;;4.78;;
21206;SDS011;10761;48.532;8.026;2023-06-24T07:02:43;8.25;;;5.40;;
21206;SDS011;10761;48.532;8.026;2023-06-24T07:05:09;5.65;;;5.13;;
21206;SDS011;10761;48.532;8.026;2023-06-24T07:07:36;5.38;;;4.97;;
21206;SDS011;10761;48.532;8.026;2023-06-24T07:10:03;7.05;;;4.82;;
21206;SDS011;10761;48.532;8.026;2023-06-24T07:12:29;6.13;;;4.75;;
21206;SDS011;10761;48.532;8.026;2023-06-24T07:14:54;5.47;;;4.63;;
21206;SDS011;10761;48.532;8.026;2023-06-24T07:17:20;5.97;;;4.82;;
21206;SDS011;10761;48.532;8.026;2023-06-24T07:19:45;5.93;;;4.57;;
21206;SDS011;10761;48.532;8.026;2023-06-24T07:22:11;6.47;;;4.65;;
21206;SDS011;10761;48.532;8.026;2023-06-24T07:24:36;7.93;;;5.00;;
21206;SDS011;10761;48.532;8.026;2023-06-24T07:27:02;11.32;;;5.38;;
21206;SDS011;10761;48.532;8.026;2023-06-24T07:29:28;5.97;;;5.03;;
21206;SDS011;10761;48.532;8.026;2023-06-24T07:31:53;6.85;;;4.60;;
21206;SDS011;10761;48.532;8.026;2023-06-24T07:34:19;4.80;;;4.35;;
21206;SDS011;10761;48.532;8.026;2023-06-24T07:36:44;4.93;;;3.95;;
21206;SDS011;10761;48.532;8.026;2023-06-24T07:39:10;5.45;;;4.50;;
21206;SDS011;10761;48.532;8.026;2023-06-24T07:41:35;6.30;;;3.97;;
21206;SDS011;10761;48.532;8.026;2023-06-24T07:44:01;7.10;;;4.65;;
21206;SDS011;10761;48.532;8.026;2023-06-24T07:46:26;7.22;;;4.72;;
21206;SDS011;10761;48.532;8.026;2023-06-24T07:48:52;6.28;;;4.25;;
21206;SDS011;10761;48.532;8.026;2023-06-24T07:51:18;6.30;;;4.38;;
21206;SDS011;10761;48.532;8.026;2023-06-24T07:53:44;7.18;;;4.80;;
21206;SDS011;10761;48.532;8.026;2023-06-24T07:56:09;5.95;;;4.35;;
21206;SDS011;10761;48.532;8.026;2023-06-24T07:58:35;5.95;;;4.00;;
21206;SDS011;10761;48.532;8.026;2023-06-24T08:01:02;7.03;;;4.45;;
21206;SDS011;10761;48.532;8.026;2023-06-24T08:03:28;5.68;;;4.28;;
21206;SDS011;10761;48.532;8.026;2023-06-24T08:05:54;7.03;;;4.53;;
21206;SDS011;10761;48.532;8.026;2023-06-24T08:08:21;6.75;;;4.35;;
21206;SDS011;10761;48.532;8.026;2023-06-24T08:10:47;7.75;;;4.78;;
21206;SDS011;10761;48.532;8.026;2023-06-24T08:13:12;6.15;;;4.28;;
21206;SDS011;10761;48.532;8.026;2023-06-24T08:15:38;4.10;;;3.35;;
21206;SDS011;10761;48.532;8.026;2023-06-24T08:18:04;4.72;;;3.25;;
21206;SDS011;10761;48.532;8.026;2023-06-24T08:20:29;4.47;;;3.40;;
21206;SDS011;10761;48.532;8.026;2023-06-24T08:22:55;3.72;;;3.40;;
21206;SDS011;10761;48.532;8.026;2023-06-24T08:25:20;5.10;;;3.72;;
21206;SDS011;10761;48.532;8.026;2023-06-24T08:27:46;5.70;;;3.20;;
21206;SDS011;10761;48.532;8.026;2023-06-24T08:30:12;4.95;;;3.10;;
21206;SDS011;10761;48.532;8.026;2023-06-24T08:32:39;8.15;;;3.92;;
21206;SDS011;10761;48.532;8.026;2023-06-24T08:35:06;6.57;;;3.97;;
21206;SDS011;10761;48.532;8.026;2023-06-24T08:37:33;4.72;;;3.63;;
21206;SDS011;10761;48.532;8.026;2023-06-24T08:39:59;8.38;;;3.70;;
21206;SDS011;10761;48.532;8.026;2023-06-24T08:42:25;5.82;;;3.92;;
21206;SDS011;10761;48.532;8.026;2023-06-24T08:44:50;6.28;;;3.80;;
21206;SDS011;10761;48.532;8.026;2023-06-24T08:47:16;5.25;;;3.65;;
21206;SDS011;10761;48.532;8.026;2023-06-24T08:49:44;5.30;;;3.78;;
21206;SDS011;10761;48.532;8.026;2023-06-24T08:52:15;5.35;;;3.55;;
21206;SDS011;10761;48.532;8.026;2023-06-24T08:54:42;5.45;;;4.00;;
21206;SDS011;10761;48.532;8.026;2023-06-24T08:57:13;6.07;;;3.40;;
21206;SDS011;10761;48.532;8.026;2023-06-24T09:03:02;6.30;;;3.70;;
21206;SDS011;10761;48.532;8.026;2023-06-24T09:05:28;3.40;;;3.10;;
21206;SDS011;10761;48.532;8.026;2023-06-24T09:07:53;4.60;;;3.33;;
21206;SDS011;10761;48.532;8.026;2023-06-24T09:10:32;4.13;;;3.25;;
21206;SDS011;10761;48.532;8.026;2023-06-24T09:13:06;5.43;;;4.18;;
21206;SDS011;10761;48.532;8.026;2023-06-24T09:15:32;6.78;;;3.55;;
21206;SDS011;10761;48.532;8.026;2023-06-24T09:18:02;7.53;;;3.60;;
21206;SDS011;10761;48.532;8.026;2023-06-24T09:20:29;4.78;;;3.10;;
21206;SDS011;10761;48.532;8.026;2023-06-24T09:23:02;4.50;;;3.25;;
21206;SDS011;10761;48.532;8.026;2023-06-24T09:25:28;3.50;;;3.20;;
21206;SDS011;10761;48.532;8.026;2023-06-24T09:27:58;4.40;;;3.45;;
21206;SDS011;10761;48.532;8.026;2023-06-24T09:30:24;4.95;;;3.45;;
21206;SDS011;10761;48.532;8.026;2023-06-24T09:32:50;4.40;;;4.00;;
21206;SDS011;10761;48.532;8.026;2023-06-24T09:35:21;4.05;;;3.40;;
21206;SDS011;10761;48.532;8.026;2023-06-24T09:37:57;6.40;;;4.07;;
21206;SDS011;10761;48.532;8.026;2023-06-24T09:40:25;4.32;;;3.70;;
21206;SDS011;10761;48.532;8.026;2023-06-24T09:42:52;9.18;;;3.80;;
21206;SDS011;10761;48.532;8.026;2023-06-24T09:45:28;5.43;;;3.63;;
21206;SDS011;10761;48.532;8.026;2023-06-24T09:47:54;7.45;;;3.83;;
21206;SDS011;10761;48.532;8.026;2023-06-24T09:50:21;5.90;;;3.35;;
21206;SDS011;10761;48.532;8.026;2023-06-24T09:52:48;6.53;;;3.47;;
21206;SDS011;10761;48.532;8.026;2023-06-24T09:55:15;6.25;;;3.72;;
21206;SDS011;10761;48.532;8.026;2023-06-24T09:57:44;9.32;;;3.85;;
21206;SDS011;10761;48.532;8.026;2023-06-24T10:00:11;3.97;;;3.45;;
21206;SDS011;10761;48.532;8.026;2023-06-24T10:02:42;6.82;;;3.13;;
21206;SDS011;10761;48.532;8.026;2023-06-24T10:05:09;3.83;;;3.03;;
21206;SDS011;10761;48.532;8.026;2023-06-24T10:07:35;4.70;;;3.13;;
21206;SDS011;10761;48.532;8.026;2023-06-24T10:10:03;3.30;;;3.00;;
21206;SDS011;10761;48.532;8.026;2023-06-24T10:12:29;3.50;;;3.10;;
21206;SDS011;10761;48.532;8.026;2023-06-24T10:14:54;6.72;;;3.28;;
21206;SDS011;10761;48.532;8.026;2023-06-24T10:17:20;29.40;;;5.35;;
21206;SDS011;10761;48.532;8.026;2023-06-24T10:19:45;5.05;;;3.15;;
21206;SDS011;10761;48.532;8.026;2023-06-24T10:22:11;4.68;;;3.25;;
21206;SDS011;10761;48.532;8.026;2023-06-24T10:24:40;3.03;;;2.72;;
21206;SDS011;10761;48.532;8.026;2023-06-24T10:27:17;3.22;;;2.55;;
21206;SDS011;10761;48.532;8.026;2023-06-24T10:29:47;5.55;;;2.97;;
21206;SDS011;10761;48.532;8.026;2023-06-24T10:32:15;3.88;;;3.58;;
21206;SDS011;10761;48.532;8.026;2023-06-24T10:34:42;5.35;;;3.45;;
21206;SDS011;10761;48.532;8.026;2023-06-24T10:37:25;5.70;;;3.45;;
21206;SDS011;10761;48.532;8.026;2023-06-24T10:39:55;8.20;;;4.03;;
21206;SDS011;10761;48.532;8.026;2023-06-24T10:50:02;4.50;;;3.15;;
21206;SDS011;10761;48.532;8.026;2023-06-24T10:52:28;3.83;;;3.40;;
21206;SDS011;10761;48.532;8.026;2023-06-24T10:54:55;3.92;;;3.63;;
21206;SDS011;10761;48.532;8.026;2023-06-24T10:57:24;6.88;;;3.60;;
21206;SDS011;10761;48.532;8.026;2023-06-24T10:59:52;7.75;;;3.63;;
21206;SDS011;10761;48.532;8.026;2023-06-24T11:02:21;4.07;;;3.45;;
21206;SDS011;10761;48.532;8.026;2023-06-24T11:04:50;7.63;;;3.55;;
21206;SDS011;10761;48.532;8.026;2023-06-24T11:07:17;5.97;;;3.78;;
21206;SDS011;10761;48.532;8.026;2023-06-24T11:09:50;6.90;;;3.30;;
21206;SDS011;10761;48.532;8.026;2023-06-24T11:12:27;5.88;;;3.10;;
21206;SDS011;10761;48.532;8.026;2023-06-24T11:14:58;29.70;;;4.78;;
21206;SDS011;10761;48.532;8.026;2023-06-24T11:17:50;13.45;;;3.35;;
21206;SDS011;10761;48.532;8.026;2023-06-24T11:20:17;5.57;;;3.05;;
21206;SDS011;10761;48.532;8.026;2023-06-24T11:22:43;6.05;;;3.30;;
21206;SDS011;10761;48.532;8.026;2023-06-24T11:25:15;4.40;;;3.10;;
21206;SDS011;10761;48.532;8.026;2023-06-24T11:27:42;3.45;;;3.15;;
21206;SDS011;10761;48.532;8.026;2023-06-24T11:30:08;12.68;;;3.47;;
21206;SDS011;10761;48.532;8.026;2023-06-24T11:32:37;7.65;;;3.42;;
21206;SDS011;10761;48.532;8.026;2023-06-24T11:35:10;6.68;;;3.15;;
21206;SDS011;10761;48.532;8.026;2023-06-24T11:37:36;3.00;;;2.70;;
21206;SDS011;10761;48.532;8.026;2023-06-24T11:42:32;4.13;;;2.70;;
21206;SDS011;10761;48.532;8.026;2023-06-24T11:45:02;2.97;;;2.78;;
21206;SDS011;10761;48.532;8.026;2023-06-24T11:47:30;4.65;;;3.10;;
21206;SDS011;10761;48.532;8.026;2023-06-24T11:49:58;3.17;;;2.88;;
21206;SDS011;10761;48.532;8.026;2023-06-24T11:52:38;3.00;;;2.67;;
21206;SDS011;10761;48.532;8.026;2023-06-24T11:55:27;3.10;;;2.80;;
21206;SDS011;10761;48.532;8.026;2023-06-24T11:58:02;5.32;;;3.08;;
21206;SDS011;10761;48.532;8.026;2023-06-24T12:00:32;5.03;;;3.00;;
21206;SDS011;10761;48.532;8.026;2023-06-24T12:03:06;3.10;;;2.80;;
21206;SDS011;10761;48.532;8.026;2023-06-24T12:05:33;5.97;;;2.85;;
21206;SDS011;10761;48.532;8.026;2023-06-24T12:08:00;3.67;;;2.85;;
21206;SDS011;10761;48.532;8.026;2023-06-24T12:10:28;3.20;;;2.45;;
21206;SDS011;10761;48.532;8.026;2023-06-24T12:12:55;2.95;;;2.75;;
21206;SDS011;10761;48.532;8.026;2023-06-24T12:15:22;7.03;;;2.90;;
21206;SDS011;10761;48.532;8.026;2023-06-24T12:17:47;2.88;;;2.50;;
21206;SDS011;10761;48.532;8.026;2023-06-24T12:20:14;4.97;;;3.00;;
21206;SDS011;10761;48.532;8.026;2023-06-24T12:22:41;4.45;;;2.70;;
21206;SDS011;10761;48.532;8.026;2023-06-24T12:25:07;5.65;;;2.97;;
21206;SDS011;10761;48.532;8.026;2023-06-24T12:27:33;3.85;;;2.85;;
21206;SDS011;10761;48.532;8.026;2023-06-24T12:29:59;6.07;;;3.08;;
21206;SDS011;10761;48.532;8.026;2023-06-24T12:32:25;4.00;;;3.10;;
21206;SDS011;10761;48.532;8.026;2023-06-24T12:34:51;3.75;;;2.42;;
21206;SDS011;10761;48.532;8.026;2023-06-24T12:37:17;2.60;;;2.40;;
21206;SDS011;10761;48.532;8.026;2023-06-24T12:39:44;3.25;;;2.80;;
21206;SDS011;10761;48.532;8.026;2023-06-24T12:42:10;5.10;;;2.72;;
21206;SDS011;10761;48.532;8.026;2023-06-24T12:44:35;3.63;;;2.63;;
21206;SDS011;10761;48.532;8.026;2023-06-24T12:47:01;4.90;;;2.65;;
21206;SDS011;10761;48.532;8.026;2023-06-24T12:49:27;4.47;;;2.92;;
21206;SDS011;10761;48.532;8.026;2023-06-24T12:51:53;4.85;;;2.90;;
21206;SDS011;10761;48.532;8.026;2023-06-24T12:54:18;3.20;;;2.90;;
21206;SDS011;10761;48.532;8.026;2023-06-24T12:56:44;4.93;;;2.60;;
21206;SDS011;10761;48.532;8.026;2023-06-24T12:59:09;4.32;;;2.78;;
21206;SDS011;10761;48.532;8.026;2023-06-24T13:01:35;4.72;;;2.78;;
21206;SDS011;10761;48.532;8.026;2023-06-24T13:04:00;3.25;;;2.42;;
21206;SDS011;10761;48.532;8.026;2023-06-24T13:06:26;3.17;;;2.67;;
21206;SDS011;10761;48.532;8.026;2023-06-24T13:08:51;3.10;;;2.80;;
21206;SDS011;10761;48.532;8.026;2023-06-24T13:11:17;3.08;;;2.60;;
21206;SDS011;10761;48.532;8.026;2023-06-24T13:13:42;5.03;;;2.72;;
21206;SDS011;10761;48.532;8.026;2023-06-24T13:16:09;3.03;;;2.80;;
21206;SDS011;10761;48.532;8.026;2023-06-24T13:18:34;3.20;;;2.90;;
21206;SDS011;10761;48.532;8.026;2023-06-24T13:21:00;3.53;;;2.85;;
21206;SDS011;10761;48.532;8.026;2023-06-24T13:23:25;3.80;;;2.63;;
21206;SDS011;10761;48.532;8.026;2023-06-24T13:25:51;7.78;;;2.97;;
21206;SDS011;10761;48.532;8.026;2023-06-24T13:28:16;4.30;;;3.08;;
21206;SDS011;10761;48.532;8.026;2023-06-24T13:30:42;5.47;;;3.05;;
21206;SDS011;10761;48.532;8.026;2023-06-24T13:33:07;3.42;;;2.90;;
21206;SDS011;10761;48.532;8.026;2023-06-24T13:35:33;4.63;;;2.88;;
21206;SDS011;10761;48.532;8.026;2023-06-24T13:37:58;4.07;;;2.78;;
21206;SDS011;10761;48.532;8.026;2023-06-24T13:40:24;3.10;;;2.88;;
21206;SDS011;10761;48.532;8.026;2023-06-24T13:42:50;6.00;;;3.08;;
21206;SDS011;10761;48.532;8.026;2023-06-24T13:45:15;4.45;;;2.78;;
21206;SDS011;10761;48.532;8.026;2023-06-24T13:47:41;3.55;;;2.70;;
21206;SDS011;10761;48.532;8.026;2023-06-24T13:50:07;3.35;;;2.60;;
21206;SDS011;10761;48.532;8.026;2023-06-24T13:52:32;3.95;;;2.47;;
21206;SDS011;10761;48.532;8.026;2023-06-24T13:54:58;9.55;;;2.70;;
21206;SDS011;10761;48.532;8.026;2023-06-24T13:57:24;3.08;;;2.78;;
21206;SDS011;10761;48.532;8.026;2023-06-24T13:59:51;4.47;;;2.80;;
21206;SDS011;10761;48.532;8.026;2023-06-24T14:02:16;3.13;;;2.83;;
21206;SDS011;10761;48.532;8.026;2023-06-24T14:04:42;2.85;;;2.45;;
21206;SDS011;10761;48.532;8.026;2023-06-24T14:07:08;3.75;;;2.40;;
21206;SDS011;10761;48.532;8.026;2023-06-24T14:09:33;4.88;;;2.97;;
21206;SDS011;10761;48.532;8.026;2023-06-24T14:11:59;6.13;;;2.50;;
21206;SDS011;10761;48.532;8.026;2023-06-24T14:14:27;3.50;;;2.95;;
21206;SDS011;10761;48.532;8.026;2023-06-24T14:16:52;2.92;;;2.63;;
21206;SDS011;10761;48.532;8.026;2023-06-24T14:19:18;4.53;;;2.95;;
21206;SDS011;10761;48.532;8.026;2023-06-24T14:21:43;2.88;;;2.60;;
21206;SDS011;10761;48.532;8.026;2023-06-24T14:24:09;7.30;;;2.85;;
21206;SDS011;10761;48.532;8.026;2023-06-24T14:26:36;3.55;;;2.90;;
21206;SDS011;10761;48.532;8.026;2023-06-24T14:29:02;3.35;;;2.58;;
21206;SDS011;10761;48.532;8.026;2023-06-24T14:31:28;5.90;;;2.97;;
21206;SDS011;10761;48.532;8.026;2023-06-24T14:33:53;3.58;;;2.80;;
21206;SDS011;10761;48.532;8.026;2023-06-24T14:36:19;3.90;;;2.80;;
21206;SDS011;10761;48.532;8.026;2023-06-24T14:38:45;6.75;;;3.10;;
21206;SDS011;10761;48.532;8.026;2023-06-24T14:41:10;4.80;;;2.70;;
21206;SDS011;10761;48.532;8.026;2023-06-24T14:43:36;4.65;;;2.40;;
21206;SDS011;10761;48.532;8.026;2023-06-24T14:46:01;4.20;;;2.17;;
21206;SDS011;10761;48.532;8.026;2023-06-24T14:48:27;4.20;;;2.65;;
21206;SDS011;10761;48.532;8.026;2023-06-24T14:50:53;4.05;;;3.10;;
21206;SDS011;10761;48.532;8.026;2023-06-24T14:53:19;6.10;;;3.70;;
21206;SDS011;10761;48.532;8.026;2023-06-24T14:55:45;3.22;;;2.67;;
21206;SDS011;10761;48.532;8.026;2023-06-24T14:58:11;4.57;;;2.30;;
21206;SDS011;10761;48.532;8.026;2023-06-24T15:00:37;5.60;;;2.80;;
21206;SDS011;10761;48.532;8.026;2023-06-24T15:03:02;5.18;;;2.92;;
21206;SDS011;10761;48.532;8.026;2023-06-24T15:05:28;2.60;;;2.40;;